sensor_id;sensor_type;location;lat;lon;timestamp;pressure;altitude;pressure_sealevel;temperature;humidity
61324;BME280;47203;48.428;11.974;2023-05-16T00:00:53;96397.00;;;16.53;54.03
61324;BME280;47203;48.428;11.974;2023-05-16T00:02:59;96389.34;;;16.52;53.77
61324;BME280;47203;48.428;11.974;2023-05-16T00:05:05;96393.56;;;16.53;53.86
61324;BME280;47203;48.428;11.974;2023-05-16T00:07:11;96392.78;;;16.52;54.28
61324;BME280;47203;48.428;11.974;2023-05-16T00:09:16;96394.66;;;16.52;53.89
61324;BME280;47203;48.428;11.974;2023-05-16T00:11:23;96399.97;;;16.52;54.23
61324;BME280;47203;48.428;11.974;2023-05-16T00:13:29;96396.22;;;16.53;54.25
61324;BME280;47203;48.428;11.974;2023-05-16T00:15:34;96390.91;;;16.53;54.17
61324;BME280;47203;48.428;11.974;2023-05-16T00:17:39;96395.44;;;16.52;54.03
61324;BME280;47203;48.428;11.974;2023-05-16T00:19:44;96396.22;;;16.53;54.10
61324;BME280;47203;48.428;11.974;2023-05-16T00:21:49;96392.78;;;16.52;54.04
61324;BME280;47203;48.428;11.974;2023-05-16T00:23:54;96389.66;;;16.50;53.99
61324;BME280;47203;48.428;11.974;2023-05-16T00:25:59;96399.97;;;16.52;54.36
61324;BME280;47203;48.428;11.974;2023-05-16T00:28:07;96391.50;;;16.50;54.29
61324;BME280;47203;48.428;11.974;2023-05-16T00:30:12;96385.13;;;16.51;54.16
61324;BME280;47203;48.428;11.974;2023-05-16T00:32:18;96375.56;;;16.50;54.52
61324;BME280;47203;48.428;11.974;2023-05-16T00:34:23;96374.03;;;16.49;54.49
61324;BME280;47203;48.428;11.974;2023-05-16T00:36:28;96381.69;;;16.50;54.31
61324;BME280;47203;48.428;11.974;2023-05-16T00:38:34;96379.03;;;16.50;54.31
61324;BME280;47203;48.428;11.974;2023-05-16T00:40:39;96376.69;;;16.49;54.12
61324;BME280;47203;48.428;11.974;2023-05-16T00:42:44;96372.91;;;16.50;54.33
61324;BME280;47203;48.428;11.974;2023-05-16T00:44:51;96372.13;;;16.49;54.20
61324;BME280;47203;48.428;11.974;2023-05-16T00:46:56;96374.81;;;16.49;54.58
61324;BME280;47203;48.428;11.974;2023-05-16T00:49:03;96376.69;;;16.49;54.32
61324;BME280;47203;48.428;11.974;2023-05-16T00:51:08;96375.88;;;16.48;54.47
61324;BME280;47203;48.428;11.974;2023-05-16T00:53:14;96371.69;;;16.47;54.62
61324;BME280;47203;48.428;11.974;2023-05-16T00:55:19;96373.53;;;16.47;54.50
61324;BME280;47203;48.428;11.974;2023-05-16T00:57:24;96372.00;;;16.46;54.57
61324;BME280;47203;48.428;11.974;2023-05-16T00:59:29;96371.19;;;16.45;54.58
61324;BME280;47203;48.428;11.974;2023-05-16T01:01:37;96374.16;;;16.44;54.35
61324;BME280;47203;48.428;11.974;2023-05-16T01:03:43;96376.03;;;16.43;54.45
61324;BME280;47203;48.428;11.974;2023-05-16T01:05:49;96373.38;;;16.43;54.58
61324;BME280;47203;48.428;11.974;2023-05-16T01:07:54;96372.13;;;16.40;54.39
61324;BME280;47203;48.428;11.974;2023-05-16T01:09:59;96363.38;;;16.40;54.35
61324;BME280;47203;48.428;11.974;2023-05-16T01:12:10;96363.69;;;16.38;54.81
61324;BME280;47203;48.428;11.974;2023-05-16T01:14:25;96364.78;;;16.37;54.90
61324;BME280;47203;48.428;11.974;2023-05-16T01:16:41;96368.06;;;16.34;54.90
61324;BME280;47203;48.428;11.974;2023-05-16T01:18:54;96365.41;;;16.34;54.66
61324;BME280;47203;48.428;11.974;2023-05-16T01:21:04;96363.84;;;16.33;55.04
61324;BME280;47203;48.428;11.974;2023-05-16T01:23:20;96360.72;;;16.31;54.83
61324;BME280;47203;48.428;11.974;2023-05-16T01:25:38;96363.38;;;16.31;54.87
61324;BME280;47203;48.428;11.974;2023-05-16T01:27:51;96358.38;;;16.30;54.79
61324;BME280;47203;48.428;11.974;2023-05-16T01:29:56;96353.06;;;16.30;54.58
61324;BME280;47203;48.428;11.974;2023-05-16T01:32:01;96350.72;;;16.28;54.64
61324;BME280;47203;48.428;11.974;2023-05-16T01:34:06;96349.13;;;16.27;54.82
61324;BME280;47203;48.428;11.974;2023-05-16T01:36:19;96342.25;;;16.26;54.95
61324;BME280;47203;48.428;11.974;2023-05-16T01:38:28;96331.63;;;16.26;54.76
61324;BME280;47203;48.428;11.974;2023-05-16T01:40:40;96338.66;;;16.22;54.89
61324;BME280;47203;48.428;11.974;2023-05-16T01:42:54;96334.91;;;16.23;54.96
61324;BME280;47203;48.428;11.974;2023-05-16T01:45:05;96341.00;;;16.23;55.00
61324;BME280;47203;48.428;11.974;2023-05-16T01:47:15;96340.22;;;16.23;54.63
61324;BME280;47203;48.428;11.974;2023-05-16T01:49:24;96336.81;;;16.22;54.84
61324;BME280;47203;48.428;11.974;2023-05-16T01:51:31;96338.66;;;16.22;55.00
61324;BME280;47203;48.428;11.974;2023-05-16T01:53:38;96338.66;;;16.22;54.73
61324;BME280;47203;48.428;11.974;2023-05-16T01:55:47;96340.53;;;16.21;54.92
61324;BME280;47203;48.428;11.974;2023-05-16T01:57:57;96337.41;;;16.19;55.30
61324;BME280;47203;48.428;11.974;2023-05-16T02:00:03;96337.41;;;16.19;54.88
61324;BME280;47203;48.428;11.974;2023-05-16T02:02:17;96342.25;;;16.17;54.96
61324;BME280;47203;48.428;11.974;2023-05-16T02:04:22;96353.66;;;16.18;54.90
61324;BME280;47203;48.428;11.974;2023-05-16T02:06:27;96347.56;;;16.17;55.18
61324;BME280;47203;48.428;11.974;2023-05-16T02:08:32;96349.44;;;16.17;54.85
61324;BME280;47203;48.428;11.974;2023-05-16T02:10:37;96354.25;;;16.15;54.84
61324;BME280;47203;48.428;11.974;2023-05-16T02:12:43;96351.59;;;16.15;55.18
61324;BME280;47203;48.428;11.974;2023-05-16T02:14:50;96351.13;;;16.13;54.92
61324;BME280;47203;48.428;11.974;2023-05-16T02:16:56;96353.78;;;16.13;55.10
61324;BME280;47203;48.428;11.974;2023-05-16T02:19:01;96347.22;;;16.10;54.91
61324;BME280;47203;48.428;11.974;2023-05-16T02:21:06;96355.97;;;16.11;54.70
61324;BME280;47203;48.428;11.974;2023-05-16T02:23:11;96357.38;;;16.08;54.95
61324;BME280;47203;48.428;11.974;2023-05-16T02:25:16;96350.50;;;16.07;54.90
61324;BME280;47203;48.428;11.974;2023-05-16T02:27:21;96355.81;;;16.07;55.07
61324;BME280;47203;48.428;11.974;2023-05-16T02:29:26;96358.00;;;16.05;54.95
61324;BME280;47203;48.428;11.974;2023-05-16T02:31:34;96354.06;;;16.02;54.81
61324;BME280;47203;48.428;11.974;2023-05-16T02:33:39;96356.41;;;16.04;54.68
61324;BME280;47203;48.428;11.974;2023-05-16T02:35:44;96355.66;;;16.03;54.86
61324;BME280;47203;48.428;11.974;2023-05-16T02:37:49;96355.97;;;16.02;54.97
61324;BME280;47203;48.428;11.974;2023-05-16T02:39:54;96363.13;;;16.01;54.96
61324;BME280;47203;48.428;11.974;2023-05-16T02:41:59;96359.19;;;15.99;55.19
61324;BME280;47203;48.428;11.974;2023-05-16T02:44:04;96362.66;;;15.99;55.06
61324;BME280;47203;48.428;11.974;2023-05-16T02:46:22;96360.31;;;15.98;55.31
61324;BME280;47203;48.428;11.974;2023-05-16T02:48:31;96364.06;;;15.97;55.25
61324;BME280;47203;48.428;11.974;2023-05-16T02:50:36;96370.13;;;15.97;55.07
61324;BME280;47203;48.428;11.974;2023-05-16T02:52:41;96357.16;;;15.96;55.37
61324;BME280;47203;48.428;11.974;2023-05-16T02:54:46;96359.06;;;15.95;55.15
61324;BME280;47203;48.428;11.974;2023-05-16T02:57:11;96362.78;;;15.94;55.13
61324;BME280;47203;48.428;11.974;2023-05-16T02:59:18;96364.34;;;15.95;55.15
61324;BME280;47203;48.428;11.974;2023-05-16T03:01:23;96359.06;;;15.95;54.99
61324;BME280;47203;48.428;11.974;2023-05-16T03:03:31;96354.81;;;15.94;54.94
61324;BME280;47203;48.428;11.974;2023-05-16T03:05:37;96356.69;;;15.94;55.13
61324;BME280;47203;48.428;11.974;2023-05-16T03:07:42;96360.44;;;15.93;55.50
61324;BME280;47203;48.428;11.974;2023-05-16T03:09:47;96369.19;;;15.93;55.31
61324;BME280;47203;48.428;11.974;2023-05-16T03:11:52;96360.44;;;15.93;55.39
61324;BME280;47203;48.428;11.974;2023-05-16T03:13:57;96368.41;;;15.93;55.13
61324;BME280;47203;48.428;11.974;2023-05-16T03:16:03;96372.94;;;15.92;55.50
61324;BME280;47203;48.428;11.974;2023-05-16T03:18:09;96359.66;;;15.92;55.25
61324;BME280;47203;48.428;11.974;2023-05-16T03:20:19;96368.72;;;15.91;55.54
61324;BME280;47203;48.428;11.974;2023-05-16T03:22:24;96366.84;;;15.92;55.57
61324;BME280;47203;48.428;11.974;2023-05-16T03:24:29;96366.84;;;15.92;55.64
61324;BME280;47203;48.428;11.974;2023-05-16T03:26:34;96357.63;;;15.89;55.55
61324;BME280;47203;48.428;11.974;2023-05-16T03:28:39;96363.72;;;15.90;55.46
61324;BME280;47203;48.428;11.974;2023-05-16T03:30:44;96350.44;;;15.90;55.66
61324;BME280;47203;48.428;11.974;2023-05-16T03:32:49;96352.31;;;15.89;55.69
61324;BME280;47203;48.428;11.974;2023-05-16T03:34:54;96356.81;;;15.88;55.28
61324;BME280;47203;48.428;11.974;2023-05-16T03:37:02;96360.59;;;15.87;55.35
61324;BME280;47203;48.428;11.974;2023-05-16T03:39:08;96360.59;;;15.87;55.41
61324;BME280;47203;48.428;11.974;2023-05-16T03:41:13;96361.66;;;15.86;55.69
61324;BME280;47203;48.428;11.974;2023-05-16T03:43:18;96360.09;;;15.85;55.50
61324;BME280;47203;48.428;11.974;2023-05-16T03:45:23;96363.06;;;15.84;55.27
61324;BME280;47203;48.428;11.974;2023-05-16T03:47:28;96354.31;;;15.83;55.88
61324;BME280;47203;48.428;11.974;2023-05-16T03:49:34;96358.56;;;15.84;55.62
61324;BME280;47203;48.428;11.974;2023-05-16T03:51:39;96357.75;;;15.84;55.56
61324;BME280;47203;48.428;11.974;2023-05-16T03:53:47;96344.78;;;15.82;55.86
61324;BME280;47203;48.428;11.974;2023-05-16T03:55:52;96349.03;;;15.83;55.65
61324;BME280;47203;48.428;11.974;2023-05-16T03:57:57;96349.78;;;15.84;55.73
61324;BME280;47203;48.428;11.974;2023-05-16T04:00:02;96361.97;;;15.85;55.77
61324;BME280;47203;48.428;11.974;2023-05-16T04:02:15;96357.75;;;15.84;55.65
61324;BME280;47203;48.428;11.974;2023-05-16T04:04:19;96357.75;;;15.84;55.76
61324;BME280;47203;48.428;11.974;2023-05-16T04:06:25;96358.56;;;15.84;55.75
61324;BME280;47203;48.428;11.974;2023-05-16T04:08:30;96360.09;;;15.85;55.64
61324;BME280;47203;48.428;11.974;2023-05-16T04:10:37;96357.44;;;15.85;55.72
61324;BME280;47203;48.428;11.974;2023-05-16T04:12:43;96360.09;;;15.85;56.14
61324;BME280;47203;48.428;11.974;2023-05-16T04:14:48;96356.66;;;15.85;55.61
61324;BME280;47203;48.428;11.974;2023-05-16T04:16:53;96348.41;;;15.86;55.75
61324;BME280;47203;48.428;11.974;2023-05-16T04:18:58;96356.66;;;15.85;55.48
61324;BME280;47203;48.428;11.974;2023-05-16T04:21:05;96356.66;;;15.85;55.85
61324;BME280;47203;48.428;11.974;2023-05-16T04:23:11;96358.56;;;15.84;55.65
61324;BME280;47203;48.428;11.974;2023-05-16T04:25:17;96361.97;;;15.85;55.88
61324;BME280;47203;48.428;11.974;2023-05-16T04:27:25;96363.84;;;15.84;56.14
61324;BME280;47203;48.428;11.974;2023-05-16T04:29:31;96359.63;;;15.83;56.19
61324;BME280;47203;48.428;11.974;2023-05-16T04:31:36;96363.06;;;15.84;56.10
61324;BME280;47203;48.428;11.974;2023-05-16T04:33:41;96363.84;;;15.84;56.14
61324;BME280;47203;48.428;11.974;2023-05-16T04:35:46;96365.41;;;15.85;56.10
61324;BME280;47203;48.428;11.974;2023-05-16T04:37:51;96362.75;;;15.85;55.96
61324;BME280;47203;48.428;11.974;2023-05-16T04:39:56;96356.66;;;15.85;55.99
61324;BME280;47203;48.428;11.974;2023-05-16T04:42:01;96362.28;;;15.83;56.20
61324;BME280;47203;48.428;11.974;2023-05-16T04:44:09;96360.72;;;15.82;56.17
61324;BME280;47203;48.428;11.974;2023-05-16T04:46:14;96364.16;;;15.83;55.76
61324;BME280;47203;48.428;11.974;2023-05-16T04:48:19;96359.16;;;15.81;56.23
61324;BME280;47203;48.428;11.974;2023-05-16T04:50:25;96359.94;;;15.82;56.07
61324;BME280;47203;48.428;11.974;2023-05-16T04:52:30;96364.47;;;15.81;55.83
61324;BME280;47203;48.428;11.974;2023-05-16T04:54:36;96356.50;;;15.81;55.96
61324;BME280;47203;48.428;11.974;2023-05-16T04:56:41;96358.38;;;15.81;56.30
61324;BME280;47203;48.428;11.974;2023-05-16T04:58:46;96365.56;;;15.80;55.88
61324;BME280;47203;48.428;11.974;2023-05-16T05:00:54;96363.97;;;15.79;56.19
61324;BME280;47203;48.428;11.974;2023-05-16T05:03:02;96367.41;;;15.80;56.35
61324;BME280;47203;48.428;11.974;2023-05-16T05:05:08;96368.53;;;15.79;56.24
61324;BME280;47203;48.428;11.974;2023-05-16T05:07:13;96368.22;;;15.80;56.35
61324;BME280;47203;48.428;11.974;2023-05-16T05:09:18;96360.56;;;15.79;56.32
61324;BME280;47203;48.428;11.974;2023-05-16T05:11:23;96366.63;;;15.79;56.40
61324;BME280;47203;48.428;11.974;2023-05-16T05:13:28;96356.31;;;15.78;56.23
61324;BME280;47203;48.428;11.974;2023-05-16T05:15:33;96356.78;;;15.80;56.11
61324;BME280;47203;48.428;11.974;2023-05-16T05:17:41;96354.13;;;15.80;56.46
61324;BME280;47203;48.428;11.974;2023-05-16T05:19:46;96356.50;;;15.81;56.27
61324;BME280;47203;48.428;11.974;2023-05-16T05:21:51;96358.38;;;15.81;56.13
61324;BME280;47203;48.428;11.974;2023-05-16T05:23:56;96356.50;;;15.81;56.51
61324;BME280;47203;48.428;11.974;2023-05-16T05:26:02;96347.44;;;15.82;56.47
61324;BME280;47203;48.428;11.974;2023-05-16T05:28:07;96357.75;;;15.84;56.21
61324;BME280;47203;48.428;11.974;2023-05-16T05:30:12;96361.97;;;15.85;56.43
61324;BME280;47203;48.428;11.974;2023-05-16T05:32:17;96360.09;;;15.85;56.34
61324;BME280;47203;48.428;11.974;2023-05-16T05:34:25;96361.22;;;15.84;56.55
61324;BME280;47203;48.428;11.974;2023-05-16T05:36:30;96356.97;;;15.83;56.28
61324;BME280;47203;48.428;11.974;2023-05-16T05:38:35;96358.56;;;15.84;56.48
61324;BME280;47203;48.428;11.974;2023-05-16T05:40:40;96359.63;;;15.83;56.27
61324;BME280;47203;48.428;11.974;2023-05-16T05:42:45;96363.84;;;15.84;56.25
61324;BME280;47203;48.428;11.974;2023-05-16T05:44:50;96360.41;;;15.84;56.28
61324;BME280;47203;48.428;11.974;2023-05-16T05:46:55;96359.44;;;15.80;56.43
61324;BME280;47203;48.428;11.974;2023-05-16T05:49:01;96362.59;;;15.82;56.03
61324;BME280;47203;48.428;11.974;2023-05-16T05:51:08;96359.44;;;15.80;56.38
61324;BME280;47203;48.428;11.974;2023-05-16T05:53:15;96356.78;;;15.80;56.38
61324;BME280;47203;48.428;11.974;2023-05-16T05:55:20;96356.78;;;15.80;56.56
61324;BME280;47203;48.428;11.974;2023-05-16T05:57:25;96359.44;;;15.80;56.36
61324;BME280;47203;48.428;11.974;2023-05-16T05:59:30;96356.50;;;15.81;56.79
61324;BME280;47203;48.428;11.974;2023-05-16T06:01:35;96351.22;;;15.81;56.68
61324;BME280;47203;48.428;11.974;2023-05-16T06:03:40;96341.06;;;15.83;56.67
61324;BME280;47203;48.428;11.974;2023-05-16T06:05:45;96346.06;;;15.85;56.59
61324;BME280;47203;48.428;11.974;2023-05-16T06:07:54;96338.56;;;15.87;56.58
61324;BME280;47203;48.428;11.974;2023-05-16T06:09:59;96345.91;;;15.90;57.05
61324;BME280;47203;48.428;11.974;2023-05-16T06:12:06;96350.63;;;15.93;56.70
61324;BME280;47203;48.428;11.974;2023-05-16T06:14:13;96347.34;;;15.96;56.79
61324;BME280;47203;48.428;11.974;2023-05-16T06:16:18;96345.16;;;15.98;56.98
61324;BME280;47203;48.428;11.974;2023-05-16T06:18:26;96344.84;;;16.00;56.64
61324;BME280;47203;48.428;11.974;2023-05-16T06:20:31;96350.34;;;16.03;57.08
61324;BME280;47203;48.428;11.974;2023-05-16T06:22:36;96348.91;;;16.06;57.19
61324;BME280;47203;48.428;11.974;2023-05-16T06:24:44;96342.53;;;16.07;56.89
61324;BME280;47203;48.428;11.974;2023-05-16T06:26:48;96345.38;;;16.11;56.98
61324;BME280;47203;48.428;11.974;2023-05-16T06:28:53;96345.81;;;16.13;56.87
61324;BME280;47203;48.428;11.974;2023-05-16T06:30:59;96354.25;;;16.15;56.81
61324;BME280;47203;48.428;11.974;2023-05-16T06:33:04;96347.56;;;16.17;57.20
61324;BME280;47203;48.428;11.974;2023-05-16T06:35:09;96353.03;;;16.21;57.16
61324;BME280;47203;48.428;11.974;2023-05-16T06:37:14;96348.97;;;16.23;57.31
61324;BME280;47203;48.428;11.974;2023-05-16T06:39:19;96349.13;;;16.27;57.19
61324;BME280;47203;48.428;11.974;2023-05-16T06:41:27;96350.41;;;16.30;56.99
61324;BME280;47203;48.428;11.974;2023-05-16T06:43:32;96353.22;;;16.33;57.62
61324;BME280;47203;48.428;11.974;2023-05-16T06:45:37;96361.34;;;16.37;57.27
61324;BME280;47203;48.428;11.974;2023-05-16T06:47:42;96363.38;;;16.40;57.19
61324;BME280;47203;48.428;11.974;2023-05-16T06:49:47;96364.34;;;16.44;57.31
61324;BME280;47203;48.428;11.974;2023-05-16T06:51:52;96371.69;;;16.47;57.13
61324;BME280;47203;48.428;11.974;2023-05-16T06:53:57;96371.81;;;16.51;57.55
61324;BME280;47203;48.428;11.974;2023-05-16T06:56:05;96378.41;;;16.53;57.29
61324;BME280;47203;48.428;11.974;2023-05-16T06:58:13;96378.53;;;16.57;57.60
61324;BME280;47203;48.428;11.974;2023-05-16T07:00:19;96382.47;;;16.60;57.12
61324;BME280;47203;48.428;11.974;2023-05-16T07:02:24;96380.00;;;16.63;57.20
61324;BME280;47203;48.428;11.974;2023-05-16T07:04:29;96376.22;;;16.64;57.34
61324;BME280;47203;48.428;11.974;2023-05-16T07:06:35;96379.03;;;16.68;57.46
61324;BME280;47203;48.428;11.974;2023-05-16T07:08:42;96377.63;;;16.70;57.21
61324;BME280;47203;48.428;11.974;2023-05-16T07:10:47;96373.56;;;16.73;57.23
61324;BME280;47203;48.428;11.974;2023-05-16T07:12:52;96375.13;;;16.74;56.95
61324;BME280;47203;48.428;11.974;2023-05-16T07:15:00;96375.59;;;16.76;57.28
61324;BME280;47203;48.428;11.974;2023-05-16T07:17:04;96381.84;;;16.80;57.34
61324;BME280;47203;48.428;11.974;2023-05-16T07:19:10;96377.78;;;16.83;57.22
61324;BME280;47203;48.428;11.974;2023-05-16T07:21:15;96372.16;;;16.84;57.17
61324;BME280;47203;48.428;11.974;2023-05-16T07:23:20;96371.56;;;16.87;57.10
61324;BME280;47203;48.428;11.974;2023-05-16T07:25:25;96370.94;;;16.90;57.19
61324;BME280;47203;48.428;11.974;2023-05-16T07:27:30;96367.97;;;16.92;57.41
61324;BME280;47203;48.428;11.974;2023-05-16T07:29:35;96368.44;;;16.94;57.36
61324;BME280;47203;48.428;11.974;2023-05-16T07:31:43;96373.13;;;16.97;57.07
61324;BME280;47203;48.428;11.974;2023-05-16T07:33:48;96369.84;;;17.00;57.48
61324;BME280;47203;48.428;11.974;2023-05-16T07:35:54;96371.41;;;17.01;57.26
61324;BME280;47203;48.428;11.974;2023-05-16T07:38:17;96377.50;;;17.02;56.96
61324;BME280;47203;48.428;11.974;2023-05-16T07:40:22;96374.53;;;17.03;57.05
61324;BME280;47203;48.428;11.974;2023-05-16T07:42:30;96378.75;;;17.04;57.29
61324;BME280;47203;48.428;11.974;2023-05-16T07:44:35;96378.44;;;17.06;57.29
61324;BME280;47203;48.428;11.974;2023-05-16T07:46:43;96378.44;;;17.06;57.09
61324;BME280;47203;48.428;11.974;2023-05-16T07:48:48;96387.19;;;17.06;56.77
61324;BME280;47203;48.428;11.974;2023-05-16T07:50:54;96385.34;;;17.07;56.99
61324;BME280;47203;48.428;11.974;2023-05-16T07:52:59;96382.97;;;17.05;56.71
61324;BME280;47203;48.428;11.974;2023-05-16T07:55:05;96384.53;;;17.06;56.55
61324;BME280;47203;48.428;11.974;2023-05-16T07:57:10;96382.19;;;17.05;56.51
61324;BME280;47203;48.428;11.974;2023-05-16T07:59:14;96384.09;;;17.04;56.51
61324;BME280;47203;48.428;11.974;2023-05-16T08:01:20;96388.91;;;17.02;56.69
61324;BME280;47203;48.428;11.974;2023-05-16T08:03:27;96384.72;;;17.01;56.16
61324;BME280;47203;48.428;11.974;2023-05-16T08:05:33;96396.13;;;17.02;56.44
61324;BME280;47203;48.428;11.974;2023-05-16T08:07:38;96396.13;;;17.02;56.72
61324;BME280;47203;48.428;11.974;2023-05-16T08:09:43;96397.69;;;17.03;56.47
61324;BME280;47203;48.428;11.974;2023-05-16T08:11:47;96394.22;;;17.02;56.85
61324;BME280;47203;48.428;11.974;2023-05-16T08:13:53;96395.81;;;17.03;56.77
61324;BME280;47203;48.428;11.974;2023-05-16T08:15:58;96390.50;;;17.03;56.91
61324;BME280;47203;48.428;11.974;2023-05-16T08:18:03;96385.94;;;17.04;56.87
61324;BME280;47203;48.428;11.974;2023-05-16T08:20:11;96390.16;;;17.05;56.74
61324;BME280;47203;48.428;11.974;2023-05-16T08:22:16;96395.97;;;17.07;56.50
61324;BME280;47203;48.428;11.974;2023-05-16T08:24:21;96394.09;;;17.07;56.70
61324;BME280;47203;48.428;11.974;2023-05-16T08:26:26;96393.78;;;17.09;56.70
61324;BME280;47203;48.428;11.974;2023-05-16T08:28:31;96396.13;;;17.10;56.99
61324;BME280;47203;48.428;11.974;2023-05-16T08:30:36;96394.22;;;17.11;57.34
61324;BME280;47203;48.428;11.974;2023-05-16T08:32:44;96392.06;;;17.13;57.37
61324;BME280;47203;48.428;11.974;2023-05-16T08:34:49;96398.63;;;17.16;57.12
61324;BME280;47203;48.428;11.974;2023-05-16T08:36:56;96393.31;;;17.16;57.54
61324;BME280;47203;48.428;11.974;2023-05-16T08:39:01;96395.66;;;17.17;57.38
61324;BME280;47203;48.428;11.974;2023-05-16T08:41:06;96398.00;;;17.19;57.45
61324;BME280;47203;48.428;11.974;2023-05-16T08:43:11;96401.13;;;17.21;57.28
61324;BME280;47203;48.428;11.974;2023-05-16T08:45:17;96397.38;;;17.22;57.38
61324;BME280;47203;48.428;11.974;2023-05-16T08:47:23;96413.00;;;17.23;57.22
61324;BME280;47203;48.428;11.974;2023-05-16T08:49:31;96403.94;;;17.24;57.16
61324;BME280;47203;48.428;11.974;2023-05-16T08:51:39;96410.81;;;17.25;57.29
61324;BME280;47203;48.428;11.974;2023-05-16T08:53:51;96408.16;;;17.25;57.05
61324;BME280;47203;48.428;11.974;2023-05-16T08:55:57;96408.63;;;17.27;57.08
61324;BME280;47203;48.428;11.974;2023-05-16T08:58:03;96401.41;;;17.28;56.99
61324;BME280;47203;48.428;11.974;2023-05-16T09:00:09;96404.84;;;17.28;57.13
61324;BME280;47203;48.428;11.974;2023-05-16T09:02:16;96399.22;;;17.30;56.97
61324;BME280;47203;48.428;11.974;2023-05-16T09:04:21;96391.72;;;17.32;57.23
61324;BME280;47203;48.428;11.974;2023-05-16T09:06:28;96397.50;;;17.34;57.35
61324;BME280;47203;48.428;11.974;2023-05-16T09:08:33;96382.00;;;17.36;57.39
61324;BME280;47203;48.428;11.974;2023-05-16T09:10:41;96390.44;;;17.38;57.18
61324;BME280;47203;48.428;11.974;2023-05-16T09:12:46;96384.50;;;17.41;57.42
61324;BME280;47203;48.428;11.974;2023-05-16T09:14:51;96382.00;;;17.45;57.83
61324;BME280;47203;48.428;11.974;2023-05-16T09:17:03;96388.22;;;17.49;58.04
61324;BME280;47203;48.428;11.974;2023-05-16T09:19:12;96379.00;;;17.55;57.86
61324;BME280;47203;48.428;11.974;2023-05-16T09:21:18;96374.91;;;17.58;57.62
61324;BME280;47203;48.428;11.974;2023-05-16T09:23:23;96379.28;;;17.62;57.83
61324;BME280;47203;48.428;11.974;2023-05-16T09:25:29;96375.69;;;17.67;57.79
61324;BME280;47203;48.428;11.974;2023-05-16T09:27:37;96382.69;;;17.72;58.18
61324;BME280;47203;48.428;11.974;2023-05-16T09:29:49;96371.41;;;17.75;58.04
61324;BME280;47203;48.428;11.974;2023-05-16T09:32:04;96376.56;;;17.80;57.54
61324;BME280;47203;48.428;11.974;2023-05-16T09:34:09;96380.13;;;17.84;58.18
61324;BME280;47203;48.428;11.974;2023-05-16T09:36:15;96380.28;;;17.88;57.90
61324;BME280;47203;48.428;11.974;2023-05-16T09:38:20;96375.13;;;17.91;58.37
61324;BME280;47203;48.428;11.974;2023-05-16T09:40:25;96371.81;;;17.94;58.45
61324;BME280;47203;48.428;11.974;2023-05-16T09:42:30;96371.97;;;17.98;58.27
61324;BME280;47203;48.428;11.974;2023-05-16T09:44:38;96369.75;;;18.00;58.48
61324;BME280;47203;48.428;11.974;2023-05-16T09:46:43;96369.13;;;18.03;58.27
61324;BME280;47203;48.428;11.974;2023-05-16T09:48:50;96369.59;;;18.05;58.64
61324;BME280;47203;48.428;11.974;2023-05-16T09:50:55;96368.19;;;18.08;58.49
61324;BME280;47203;48.428;11.974;2023-05-16T09:53:05;96367.53;;;18.11;58.48
61324;BME280;47203;48.428;11.974;2023-05-16T09:55:10;96366.09;;;18.13;58.05
61324;BME280;47203;48.428;11.974;2023-05-16T09:57:17;96367.81;;;18.18;58.21
61324;BME280;47203;48.428;11.974;2023-05-16T09:59:22;96367.50;;;18.20;58.42
61324;BME280;47203;48.428;11.974;2023-05-16T10:01:30;96367.16;;;18.21;58.71
61324;BME280;47203;48.428;11.974;2023-05-16T10:03:36;96368.88;;;18.26;58.61
61324;BME280;47203;48.428;11.974;2023-05-16T10:05:42;96368.22;;;18.29;58.60
61324;BME280;47203;48.428;11.974;2023-05-16T10:07:47;96366.00;;;18.31;58.43
61324;BME280;47203;48.428;11.974;2023-05-16T10:09:54;96357.38;;;18.34;58.46
61324;BME280;47203;48.428;11.974;2023-05-16T10:12:00;96365.50;;;18.38;58.65
61324;BME280;47203;48.428;11.974;2023-05-16T10:14:08;96359.53;;;18.41;58.57
61324;BME280;47203;48.428;11.974;2023-05-16T10:16:13;96360.44;;;18.45;58.14
61324;BME280;47203;48.428;11.974;2023-05-16T10:18:22;96368.09;;;18.46;58.58
61324;BME280;47203;48.428;11.974;2023-05-16T10:20:28;96371.22;;;18.48;58.42
61324;BME280;47203;48.428;11.974;2023-05-16T10:22:34;96367.13;;;18.51;58.30
61324;BME280;47203;48.428;11.974;2023-05-16T10:24:43;96368.06;;;18.55;58.22
61324;BME280;47203;48.428;11.974;2023-05-16T10:26:51;96365.06;;;18.57;58.51
61324;BME280;47203;48.428;11.974;2023-05-16T10:28:56;96370.53;;;18.60;58.17
61324;BME280;47203;48.428;11.974;2023-05-16T10:31:01;96367.22;;;18.63;57.88
61324;BME280;47203;48.428;11.974;2023-05-16T10:33:07;96373.00;;;18.65;57.86
61324;BME280;47203;48.428;11.974;2023-05-16T10:35:15;96373.47;;;18.67;58.16
61324;BME280;47203;48.428;11.974;2023-05-16T10:37:21;96370.47;;;18.69;58.20
61324;BME280;47203;48.428;11.974;2023-05-16T10:39:31;96372.34;;;18.69;57.62
61324;BME280;47203;48.428;11.974;2023-05-16T10:41:50;96368.91;;;18.68;57.83
61324;BME280;47203;48.428;11.974;2023-05-16T10:44:13;96378.81;;;18.67;57.67
61324;BME280;47203;48.428;11.974;2023-05-16T10:46:22;96378.47;;;18.69;57.88
61324;BME280;47203;48.428;11.974;2023-05-16T10:48:28;96371.25;;;18.70;57.69
61324;BME280;47203;48.428;11.974;2023-05-16T10:50:38;96371.25;;;18.70;57.76
61324;BME280;47203;48.428;11.974;2023-05-16T10:52:43;96372.34;;;18.69;57.81
61324;BME280;47203;48.428;11.974;2023-05-16T10:54:50;96376.25;;;18.71;57.54
61324;BME280;47203;48.428;11.974;2023-05-16T10:56:56;96377.34;;;18.70;57.75
61324;BME280;47203;48.428;11.974;2023-05-16T10:59:22;96367.66;;;18.65;57.73
61324;BME280;47203;48.428;11.974;2023-05-16T11:01:31;96374.41;;;18.63;57.53